www.srh.weather.gov   
NOAA logo - Click to go to the NOAA homepage   NWS logo
Terminal Aerodrome Forecast
Enter Your "City, ST" or zip code   
Current Version              Previous Version:    01  02  03  04  05  06  07  08  09  10  11  12  13  14  15  16  17  18  19  20  21  22  23  24  25  26  27  28  29  30  
   31  32  33  34  35  36  37  38  39  40  41  42  43  44  45  46  47  48  49  50  51  52  53  54  55  56  57  58  59  60  
[Printable]
896
FTUS41 KOKX 301700
TAFISP
TAF
KISP 301721Z 3018/3118 VRB03KT P6SM SCT090
     FM301900 21008KT P6SM SCT060
     FM310100 VRB04KT P6SM SKC
     FM311300 20008KT P6SM FEW250=

National Weather Service
Disclaimer
Last Modified: August 31, 2005
Privacy Policy